עמוד ראשי
METAR-TAF:

METAR-TAF

שדות תעופה :

Førde, נורבגיה

קו רוחב: 61-27N, קו אורך: 005-52E, גובה: 150מטר

תצפית מזג אוויר נוכחית

הדו"ח נערך לפני 32דקות, בשעה 23:20 UTC
רוח 4קשר מכיוון מערב, משתנה בין מערב/דרום-מערב ו מערב/צפון-מערב
טמפרטורת 9 צלסיוס
לחות 107%
לחץ 1014 hPa
ראות: 1900מטר
אד,

METAR: ENBL 182320Z AUTO 26004KT 240V300 1900 BR OVC001/// 09/10 Q1014

זמן: 01:52 (23:52 UTC)

תחזית

הדו"ח נערך לפני 15 שעות ו 52דקות, בשעה 08:00 UTC
תחזית בתוקף מ 18 ב 09 UTC עד 18 ב 15 UTC
רוח 5קשר עם כיוונים משתנים
ראות 10 קילומטר או יותר
מעט עננים בגובה 4000רגל
עננים פזורים בגובה 8000רגל
זמנית מ -
18 ב 09 UTC עד 18 ב 15 UTC
רוח 10קשר מכיוון דרום/דרום-מערב
הסתברות 30% :
זמנית מ -
18 ב 11 UTC עד 18 ב 15 UTC
עננים פזורים בגובה 3000רגל , קומולוס מיגדלי.
עננים בינוניים בגובה 4000רגל
ממטרי גשם,

TAF: ENBL 180800Z 1809/1815 VRB05KT 9999 FEW040 SCT080 TEMPO 1809/1815 20010KT PROB30 TEMPO 1811/1815 SHRA SCT030TCU BKN040

תצפיות ותחזיות מזג אוויר לגבי יותר מ- 4,000 שדות תעופה ברחבי העולם. דוחות METAR ו- TAF.

התחנות הזמינות מסומנות בנקודות צהובות ואדומות על גבי המפה.

העבר את העכבר לנקודה הצבעונית על מנת לראות את שם התחנה.

לאחר מכן, לחץ כדי לראות את תוכן ואת תחזיות מזג האוויר.

כדי לשנות את המפה: לחץ על הכפתורים הירוקים עם הפלוס השחור כדי להתקרב; על הכפתור הירוק עם המקף כדי להתרחק; או בחיצים הירוקים למפות סמוכות.


METAR-TAF: